North Cedar, Texas
Current Conditions -  °F | °C
As of 8:53 AM on Saturday 20 Dec 2014 (Local Time) from KLFK Reporting Station
Haze Haze  
Wind Chill: 50°   Ceiling: 500
Heat Index: 50°   Visibility: 5mi
Dew Point: 45°   Wind: 7mph
Humidity: 83%   Direction: 30°NNE
Pressure: 30.22"   Gusts: NA
Location:  31.2615°N, 94.9718°W
Report Text: KLFK 201453Z AUTO 03006KT 5SM HZ OVC005 10/07 A3022 RMK AO2 SLP233 T01000072 51017
Loading
Personal Weather Stations






























Interactive Weather Map New forecast layout! Learn more

10-Day Weather Forecast

Advertisements
Track Severe Weather on mobile